Time;durP1;ratioP1;P1;durP2;ratioP2;P2;SDS_P1;SDS_P2;PMS_P1;PMS_P2;Temp;Humidity;BMP_temperature;BMP_pressure;BME280_temperature;BME280_humidity;BME280_pressure;Samples;Min_cycle;Max_cycle;Signal;HPM_P1;HPM_P2
2023/07/27 00:01:32;;;;;;;25.80;6.30;;;25.30;86.80;;;;;;5097299;28;20035;-72
2023/07/27 00:04:36;;;;;;;30.30;5.95;;;25.30;87.20;;;;;;5097306;28;20047;-72
2023/07/27 00:07:40;;;;;;;31.08;7.63;;;25.30;87.10;;;;;;5097332;28;20391;-72
2023/07/27 00:10:44;;;;;;;32.50;6.38;;;24.80;88.90;;;;;;5097556;28;20047;-72
2023/07/27 00:13:48;;;;;;;26.58;6.35;;;24.80;89.70;;;;;;5097243;28;20055;-72
2023/07/27 00:16:51;;;;;;;30.17;5.43;;;24.50;90.60;;;;;;5097554;28;20503;-72
2023/07/27 00:19:57;;;;;;;42.00;7.05;;;24.40;90.80;;;;;;5097481;28;20063;-71
2023/07/27 00:23:01;;;;;;;22.25;5.68;;;24.40;90.80;;;;;;5097472;28;20498;-72
2023/07/27 00:26:05;;;;;;;27.58;6.45;;;24.40;90.90;;;;;;5096121;28;20047;-71
2023/07/27 00:29:09;;;;;;;38.85;6.85;;;24.50;90.70;;;;;;5097243;28;20035;-72
2023/07/27 00:32:14;;;;;;;24.45;5.60;;;24.60;90.70;;;;;;5095975;28;20051;-72
2023/07/27 00:35:19;;;;;;;37.30;6.57;;;24.60;90.80;;;;;;5096326;28;20046;-72
2023/07/27 00:38:23;;;;;;;30.67;6.10;;;24.60;90.60;;;;;;5097129;28;20042;-72
2023/07/27 00:41:27;;;;;;;22.75;6.32;;;24.60;90.80;;;;;;5096756;28;20039;-72
2023/07/27 00:44:31;;;;;;;27.90;6.10;;;24.70;90.80;;;;;;5095864;28;20043;-72
2023/07/27 00:47:35;;;;;;;34.17;7.03;;;24.80;90.50;;;;;;5092718;28;20462;-72
2023/07/27 00:50:39;;;;;;;29.63;6.72;;;24.80;90.40;;;;;;5093601;28;20055;-72
2023/07/27 00:53:43;;;;;;;25.73;5.35;;;24.80;90.50;;;;;;5092568;28;20055;-72
2023/07/27 00:56:47;;;;;;;22.58;6.80;;;24.60;90.70;;;;;;5093466;28;20051;-72
2023/07/27 00:59:51;;;;;;;38.33;8.02;;;24.50;91.00;;;;;;5092528;28;20039;-72
2023/07/27 01:02:56;;;;;;;27.30;5.78;;;24.50;91.00;;;;;;5093286;28;20047;-72
2023/07/27 01:06:01;;;;;;;26.98;5.95;;;24.50;91.00;;;;;;5093264;28;20047;-72
2023/07/27 01:09:05;;;;;;;18.48;5.20;;;24.60;90.90;;;;;;5081093;28;20124;-72
2023/07/27 01:12:42;;;;;;;21.52;5.70;;;24.70;90.70;;;;;;5093357;28;20043;-72
2023/07/27 01:15:55;;;;;;;31.48;6.30;;;24.70;90.70;;;;;;5093087;28;20383;-72
2023/07/27 01:19:28;;;;;;;33.28;6.10;;;24.70;90.50;;;;;;5093116;28;20051;-72
2023/07/27 01:22:32;;;;;;;28.08;6.15;;;24.70;90.40;;;;;;5093470;28;20047;-72
2023/07/27 01:26:00;;;;;;;23.08;4.97;;;24.60;90.30;;;;;;5092717;28;20059;-72
2023/07/27 01:29:42;;;;;;;28.92;5.72;;;24.50;90.50;;;;;;5093010;28;20050;-72
2023/07/27 01:33:11;;;;;;;24.17;6.25;;;24.50;90.40;;;;;;5092763;28;20047;-72
2023/07/27 01:36:22;;;;;;;27.13;5.10;;;24.50;90.60;;;;;;5092268;28;20039;-72
2023/07/27 01:39:28;;;;;;;27.75;5.93;;;24.50;90.60;;;;;;5092879;28;20051;-72
2023/07/27 01:42:32;;;;;;;25.90;5.35;;;24.50;90.70;;;;;;5092510;28;20039;-71
2023/07/27 01:45:38;;;;;;;27.27;6.00;;;24.20;91.00;;;;;;5092507;28;20043;-72
2023/07/27 01:48:43;;;;;;;22.83;5.38;;;24.20;91.10;;;;;;5092725;28;20530;-72
2023/07/27 01:51:48;;;;;;;26.98;5.85;;;24.10;91.00;;;;;;5091506;28;20046;-71
2023/07/27 01:54:55;;;;;;;22.70;5.93;;;24.00;91.40;;;;;;5092216;28;20039;-72
2023/07/27 01:58:02;;;;;;;28.83;5.80;;;23.80;91.50;;;;;;5091470;28;20043;-72
2023/07/27 02:01:07;;;;;;;29.45;6.57;;;23.70;92.00;;;;;;5091491;28;20047;-72
2023/07/27 02:04:11;;;;;;;31.63;6.10;;;23.70;92.10;;;;;;5092675;28;20384;-71
2023/07/27 02:07:17;;;;;;;30.17;5.60;;;23.70;92.00;;;;;;5091859;28;20046;-72
2023/07/27 02:10:24;;;;;;;26.95;5.57;;;23.80;91.80;;;;;;5092205;28;20039;-71
2023/07/27 02:13:35;;;;;;;25.23;5.47;;;23.60;91.90;;;;;;5092055;28;20055;-72
2023/07/27 02:16:57;;;;;;;30.83;6.85;;;23.40;92.30;;;;;;5092399;28;20054;-72
2023/07/27 02:20:02;;;;;;;25.05;5.53;;;23.50;92.10;;;;;;5091765;28;20063;-72
2023/07/27 02:23:07;;;;;;;26.08;5.03;;;23.60;91.90;;;;;;5092089;28;20055;-72
2023/07/27 02:26:11;;;;;;;21.35;5.55;;;23.60;92.00;;;;;;5091546;28;20059;-72
2023/07/27 02:29:16;;;;;;;26.30;5.32;;;23.70;91.60;;;;;;5091954;28;20059;-72
2023/07/27 02:32:20;;;;;;;20.10;5.30;;;23.70;91.40;;;;;;5090908;28;20047;-72
2023/07/27 02:35:24;;;;;;;25.10;5.40;;;23.50;91.90;;;;;;5092109;28;20047;-72
2023/07/27 02:38:31;;;;;;;24.27;5.25;;;23.30;92.20;;;;;;5090895;28;20035;-72
2023/07/27 02:41:35;;;;;;;26.17;5.35;;;23.40;91.90;;;;;;5090598;28;20051;-72
2023/07/27 02:44:42;;;;;;;27.63;5.05;;;23.50;91.50;;;;;;5090987;28;20050;-72
2023/07/27 02:47:46;;;;;;;23.77;6.40;;;23.60;91.30;;;;;;5090989;28;20518;-72
2023/07/27 02:50:54;;;;;;;24.80;5.30;;;23.30;91.60;;;;;;5090815;28;20055;-71
2023/07/27 02:53:58;;;;;;;23.40;5.20;;;23.20;91.90;;;;;;5090356;28;20055;-71
2023/07/27 02:57:06;;;;;;;28.20;5.00;;;23.30;91.80;;;;;;5090539;28;20055;-72
2023/07/27 03:00:18;;;;;;;21.92;5.30;;;23.40;91.40;;;;;;5090517;28;20498;-72
2023/07/27 03:03:25;;;;;;;20.60;5.28;;;23.40;91.20;;;;;;5090286;28;20080;-71
2023/07/27 03:06:39;;;;;;;20.38;4.53;;;23.60;91.10;;;;;;5090366;28;20047;-72
2023/07/27 03:09:51;;;;;;;19.67;5.53;;;23.60;90.90;;;;;;5089712;28;20043;-72
2023/07/27 03:12:56;;;;;;;21.13;4.83;;;23.70;90.70;;;;;;5090276;28;20054;-72
2023/07/27 03:16:04;;;;;;;18.95;5.10;;;23.70;90.80;;;;;;5090276;28;20043;-72
2023/07/27 03:19:08;;;;;;;26.33;5.13;;;23.60;90.60;;;;;;5090260;28;20047;-72
2023/07/27 03:22:12;;;;;;;22.25;4.88;;;23.60;90.80;;;;;;5090089;28;20134;-71
2023/07/27 03:25:16;;;;;;;28.45;5.47;;;23.50;91.00;;;;;;5090135;28;20059;-72
2023/07/27 03:28:20;;;;;;;20.38;5.35;;;23.40;91.10;;;;;;5089990;28;20093;-71
2023/07/27 03:31:27;;;;;;;21.40;4.82;;;23.40;91.00;;;;;;5091010;28;20412;-71
2023/07/27 03:34:31;;;;;;;23.13;5.00;;;23.30;91.30;;;;;;5078315;28;20059;-71
2023/07/27 03:37:35;;;;;;;28.80;6.78;;;23.30;91.40;;;;;;5091383;28;20051;-72
2023/07/27 03:40:39;;;;;;;27.52;6.88;;;23.20;91.10;;;;;;5089682;28;20039;-72
2023/07/27 03:43:43;;;;;;;23.77;4.78;;;23.10;91.40;;;;;;5089688;28;20051;-71
2023/07/27 03:46:47;;;;;;;26.88;5.38;;;23.10;91.50;;;;;;5089753;28;20047;-71
2023/07/27 03:49:51;;;;;;;26.80;4.55;;;22.90;91.50;;;;;;5091011;28;20039;-71
2023/07/27 03:52:56;;;;;;;16.48;4.53;;;22.80;91.90;;;;;;5090385;28;20055;-71
2023/07/27 03:56:01;;;;;;;22.90;4.35;;;22.90;91.70;;;;;;5090791;28;20388;-71
2023/07/27 03:59:05;;;;;;;30.33;5.47;;;22.90;91.50;;;;;;5089902;28;20399;-71
2023/07/27 04:02:09;;;;;;;21.80;4.43;;;23.00;91.50;;;;;;5089684;28;20431;-72
2023/07/27 04:05:13;;;;;;;31.30;5.03;;;23.00;91.10;;;;;;5090456;28;20039;-72
2023/07/27 04:08:17;;;;;;;29.38;5.13;;;22.90;91.60;;;;;;5089622;28;20043;-71
2023/07/27 04:11:22;;;;;;;27.35;5.75;;;23.00;91.20;;;;;;5089818;28;20522;-71
2023/07/27 04:14:26;;;;;;;26.02;5.32;;;22.90;91.30;;;;;;5090555;28;20051;-71
2023/07/27 04:17:30;;;;;;;29.50;5.47;;;23.00;90.90;;;;;;5089895;28;20387;-71
2023/07/27 04:20:34;;;;;;;21.70;5.60;;;23.00;91.20;;;;;;5091785;28;20047;-72
2023/07/27 04:23:37;;;;;;;26.40;4.93;;;23.20;91.00;;;;;;5094191;28;20054;-71
2023/07/27 04:26:42;;;;;;;21.73;5.25;;;23.10;91.30;;;;;;5094472;28;20055;-71
2023/07/27 04:29:46;;;;;;;24.40;5.35;;;23.00;91.70;;;;;;5093990;28;20042;-71
2023/07/27 04:32:49;;;;;;;29.80;7.05;;;23.00;91.70;;;;;;5093946;28;20407;-72
2023/07/27 04:35:57;;;;;;;40.78;6.75;;;23.00;91.80;;;;;;5093014;28;20039;-71
2023/07/27 04:39:01;;;;;;;26.85;5.85;;;23.00;92.10;;;;;;5094311;28;20507;-71
2023/07/27 04:42:05;;;;;;;30.98;7.63;;;23.20;91.70;;;;;;5093937;28;20047;-71
2023/07/27 04:45:35;;;;;;;36.97;7.43;;;23.50;91.70;;;;;;5093454;28;20054;-71
2023/07/27 04:48:39;;;;;;;35.28;6.78;;;23.70;91.50;;;;;;5094009;28;20043;-72
2023/07/27 04:51:42;;;;;;;27.05;7.07;;;24.30;91.00;;;;;;5093857;28;20055;-72
2023/07/27 04:54:46;;;;;;;27.38;6.70;;;25.10;89.40;;;;;;5093982;28;20059;-72
2023/07/27 04:57:50;;;;;;;27.38;7.15;;;25.90;87.00;;;;;;5092669;28;20042;-72
2023/07/27 05:00:55;;;;;;;39.10;7.20;;;26.20;86.00;;;;;;5092907;28;20047;-72
2023/07/27 05:03:59;;;;;;;40.63;8.15;;;26.40;85.40;;;;;;5093855;28;20313;-72
2023/07/27 05:07:03;;;;;;;34.58;7.72;;;26.50;84.90;;;;;;5093416;28;20380;-75
2023/07/27 05:10:08;;;;;;;34.63;7.60;;;26.50;85.40;;;;;;5093461;28;20051;-75
2023/07/27 05:13:11;;;;;;;39.83;8.07;;;27.00;84.40;;;;;;5093207;28;20067;-75
2023/07/27 05:16:15;;;;;;;51.90;9.82;;;27.40;83.00;;;;;;5093396;28;20043;-75
2023/07/27 05:19:19;;;;;;;46.40;9.18;;;27.60;82.60;;;;;;5093124;28;20063;-75
2023/07/27 05:22:23;;;;;;;101.45;12.60;;;27.80;81.90;;;;;;5093604;28;20043;-75
2023/07/27 05:25:27;;;;;;;62.35;9.30;;;27.50;82.60;;;;;;5093113;28;20522;-74
2023/07/27 05:28:31;;;;;;;48.58;8.85;;;27.30;82.90;;;;;;5093360;28;20047;-75
2023/07/27 05:31:35;;;;;;;59.83;8.80;;;27.30;83.30;;;;;;5093054;28;20042;-75
2023/07/27 05:34:39;;;;;;;75.70;11.02;;;27.30;83.40;;;;;;5093316;28;20526;-75
2023/07/27 05:37:46;;;;;;;54.05;9.00;;;27.40;83.40;;;;;;5092807;28;20035;-74
2023/07/27 05:40:50;;;;;;;133.60;13.25;;;27.50;83.40;;;;;;5093108;28;20047;-74
2023/07/27 05:43:54;;;;;;;44.90;8.13;;;27.80;82.80;;;;;;5092707;28;20043;-74
2023/07/27 05:46:58;;;;;;;42.63;8.02;;;27.90;82.40;;;;;;5092987;28;20047;-75
2023/07/27 05:50:02;;;;;;;53.88;7.95;;;28.10;82.20;;;;;;5092635;28;20047;-74
2023/07/27 05:53:06;;;;;;;30.55;8.18;;;28.30;82.20;;;;;;5092434;28;20055;-73
2023/07/27 05:56:10;;;;;;;32.03;7.55;;;29.00;80.20;;;;;;5092726;28;20055;-74
2023/07/27 05:59:15;;;;;;;36.75;8.95;;;29.90;78.30;;;;;;5092293;28;20043;-74
2023/07/27 06:02:18;;;;;;;26.60;7.78;;;30.50;76.50;;;;;;5092656;28;20087;-75
2023/07/27 06:05:23;;;;;;;48.08;7.22;;;30.60;76.00;;;;;;5092482;28;20043;-73
2023/07/27 06:08:27;;;;;;;71.57;9.43;;;30.90;75.80;;;;;;5092319;28;20047;-74
2023/07/27 06:11:31;;;;;;;27.08;8.02;;;31.20;75.50;;;;;;5092226;28;20043;-74
2023/07/27 06:14:35;;;;;;;38.13;7.75;;;31.30;74.70;;;;;;5091803;28;20071;-70
2023/07/27 06:17:39;;;;;;;63.08;8.95;;;31.60;74.50;;;;;;5091927;28;20039;-72
2023/07/27 06:20:43;;;;;;;49.40;8.30;;;31.60;74.60;;;;;;5092435;28;20062;-73
2023/07/27 06:23:47;;;;;;;59.72;8.70;;;31.80;74.50;;;;;;5091458;28;20031;-72
2023/07/27 06:26:51;;;;;;;60.70;10.48;;;31.20;74.50;;;;;;5089810;28;20047;-72
2023/07/27 06:29:55;;;;;;;42.33;7.70;;;30.80;75.80;;;;;;5091233;28;20510;-71
2023/07/27 06:32:58;;;;;;;45.53;8.05;;;30.40;76.00;;;;;;5090838;28;20067;-73
2023/07/27 06:36:07;;;;;;;135.75;12.13;;;30.30;76.60;;;;;;5091010;28;20510;-72
2023/07/27 06:39:10;;;;;;;51.97;10.73;;;30.30;77.10;;;;;;5091487;28;20047;-72
2023/07/27 06:42:15;;;;;;;106.90;12.20;;;30.40;76.30;;;;;;5091748;28;20054;-72
2023/07/27 06:45:18;;;;;;;27.70;7.20;;;30.40;75.60;;;;;;5090666;28;20039;-72
2023/07/27 06:48:22;;;;;;;37.55;6.82;;;30.50;75.40;;;;;;5091548;28;20039;-72
2023/07/27 06:51:26;;;;;;;56.33;8.50;;;30.60;75.20;;;;;;5091497;28;20778;-72
2023/07/27 06:54:30;;;;;;;13.45;3.72;;;30.60;74.70;;;;;;5091500;28;20051;-72
2023/07/27 06:57:34;;;;;;;22.48;4.18;;;30.70;70.50;;;;;;5091347;28;20486;-72
2023/07/27 07:00:38;;;;;;;21.83;3.65;;;30.70;71.40;;;;;;5091417;28;20498;-73
2023/07/27 07:03:42;;;;;;;22.55;4.80;;;30.70;71.00;;;;;;5091384;28;20386;-72
2023/07/27 07:06:48;;;;;;;22.77;5.10;;;30.60;70.50;;;;;;5091101;28;20051;-72
2023/07/27 07:09:52;;;;;;;22.02;4.85;;;30.70;70.00;;;;;;5090109;28;20142;-72
2023/07/27 07:12:56;;;;;;;33.90;6.00;;;30.70;70.50;;;;;;5091005;28;20059;-73
2023/07/27 07:16:00;;;;;;;15.68;3.85;;;31.10;70.20;;;;;;5091051;28;20043;-73
2023/07/27 07:19:04;;;;;;;21.63;4.70;;;31.20;68.80;;;;;;5090966;28;20289;-73
2023/07/27 07:22:08;;;;;;;13.63;2.78;;;31.20;69.00;;;;;;5090873;28;20043;-71
2023/07/27 07:25:12;;;;;;;15.65;3.55;;;31.20;67.00;;;;;;5090879;28;20503;-72
2023/07/27 07:28:18;;;;;;;9.27;2.67;;;31.40;67.40;;;;;;5090936;28;20043;-71
2023/07/27 07:31:22;;;;;;;13.40;2.55;;;31.60;66.80;;;;;;5090946;28;20047;-72
2023/07/27 07:34:26;;;;;;;37.03;4.70;;;31.70;66.50;;;;;;5090841;28;20055;-72
2023/07/27 07:37:30;;;;;;;11.48;2.90;;;31.80;66.00;;;;;;5091196;28;20058;-72
2023/07/27 07:40:34;;;;;;;22.27;3.47;;;31.90;65.50;;;;;;5091311;28;20055;-72
2023/07/27 07:43:39;;;;;;;12.13;2.67;;;31.90;65.40;;;;;;5091049;28;20063;-72
2023/07/27 07:46:43;;;;;;;9.98;2.97;;;31.80;65.80;;;;;;5091035;28;20391;-72
2023/07/27 07:49:48;;;;;;;14.00;3.67;;;31.90;66.20;;;;;;5090601;28;20046;-72
2023/07/27 07:52:52;;;;;;;13.65;3.55;;;32.00;65.30;;;;;;5090686;28;20039;-72
2023/07/27 07:55:55;;;;;;;20.90;4.78;;;32.00;65.40;;;;;;5094233;28;20050;-72
2023/07/27 07:58:59;;;;;;;18.63;3.30;;;32.20;66.20;;;;;;5094994;28;20209;-72
2023/07/27 08:02:04;;;;;;;25.13;3.83;;;32.00;65.00;;;;;;5094488;28;20047;-72
2023/07/27 08:05:08;;;;;;;19.27;3.38;;;32.00;65.50;;;;;;5094964;28;20102;-72
2023/07/27 08:08:13;;;;;;;17.75;3.88;;;32.00;65.80;;;;;;5093567;28;20388;-72
2023/07/27 08:11:17;;;;;;;42.40;4.97;;;32.20;64.90;;;;;;5094695;28;20035;-71
2023/07/27 08:14:22;;;;;;;15.75;3.70;;;32.40;66.40;;;;;;5094478;28;20047;-72
2023/07/27 08:17:29;;;;;;;9.68;3.50;;;32.20;64.20;;;;;;5094232;28;20043;-71
2023/07/27 08:20:33;;;;;;;26.77;4.82;;;32.00;65.30;;;;;;5094345;28;20047;-71
2023/07/27 08:23:36;;;;;;;16.30;3.70;;;32.20;64.70;;;;;;5094033;28;20035;-72
2023/07/27 08:26:40;;;;;;;15.98;3.40;;;32.40;63.60;;;;;;5094745;28;20047;-73
2023/07/27 08:29:44;;;;;;;7.97;2.58;;;32.60;63.70;;;;;;5093943;28;20043;-70
2023/07/27 08:32:48;;;;;;;13.75;2.90;;;32.50;62.80;;;;;;5093280;28;20078;-72
2023/07/27 08:35:52;;;;;;;10.25;2.63;;;32.00;63.30;;;;;;5093953;28;20420;-72
2023/07/27 08:38:57;;;;;;;8.32;3.30;;;31.70;63.80;;;;;;5094188;28;20039;-72
2023/07/27 08:42:01;;;;;;;11.43;2.75;;;31.60;64.00;;;;;;5093880;28;20047;-72
2023/07/27 08:45:06;;;;;;;21.90;3.50;;;31.60;64.50;;;;;;5093856;28;20498;-72
2023/07/27 08:48:10;;;;;;;20.35;3.75;;;31.60;65.10;;;;;;5094175;28;20062;-72
2023/07/27 08:51:14;;;;;;;19.17;3.70;;;31.60;64.40;;;;;;5093807;28;20043;-73
2023/07/27 08:54:18;;;;;;;41.83;4.47;;;31.70;65.20;;;;;;5093660;28;20054;-72
2023/07/27 08:57:22;;;;;;;35.38;4.53;;;31.90;64.80;;;;;;5093670;28;20054;-73
2023/07/27 09:00:26;;;;;;;17.55;4.40;;;32.30;65.10;;;;;;5093641;28;20060;-72
2023/07/27 09:03:30;;;;;;;33.50;4.95;;;32.60;64.10;;;;;;5093413;28;20043;-72
2023/07/27 09:06:38;;;;;;;26.42;4.13;;;32.80;63.90;;;;;;5092804;28;20039;-72
2023/07/27 09:09:51;;;;;;;24.95;3.90;;;33.00;63.40;;;;;;5093243;28;20043;-72
2023/07/27 09:13:04;;;;;;;25.58;4.07;;;33.10;63.20;;;;;;5093498;28;20046;-72
2023/07/27 09:16:09;;;;;;;20.95;3.40;;;33.10;62.80;;;;;;5093428;28;20067;-72
2023/07/27 09:19:17;;;;;;;26.13;4.13;;;33.10;62.70;;;;;;5092782;28;20047;-71
2023/07/27 09:22:21;;;;;;;20.33;3.80;;;33.10;62.30;;;;;;5093444;28;20054;-71
2023/07/27 09:25:25;;;;;;;21.35;3.75;;;33.10;62.90;;;;;;5092694;28;20063;-72
2023/07/27 09:28:29;;;;;;;24.05;4.32;;;33.10;62.60;;;;;;5093146;28;20499;-72
2023/07/27 09:31:36;;;;;;;40.95;5.90;;;33.20;62.10;;;;;;5092997;28;20035;-72
2023/07/27 09:34:40;;;;;;;26.83;4.95;;;33.30;63.00;;;;;;5092614;28;20063;-72
2023/07/27 09:37:45;;;;;;;34.80;4.50;;;33.30;62.30;;;;;;5093009;28;20396;-72
2023/07/27 09:40:49;;;;;;;18.27;4.07;;;33.40;61.80;;;;;;5092562;28;20055;-72
2023/07/27 09:43:57;;;;;;;21.65;4.53;;;33.40;61.40;;;;;;5093006;28;20047;-73
2023/07/27 09:47:01;;;;;;;18.15;4.07;;;33.50;62.30;;;;;;5092930;28;20391;-72
2023/07/27 09:50:07;;;;;;;97.43;9.70;;;33.50;61.60;;;;;;5092558;28;20047;-72
2023/07/27 09:53:14;;;;;;;18.58;3.50;;;33.60;61.90;;;;;;5092782;28;20039;-71
2023/07/27 09:56:19;;;;;;;10.77;3.28;;;33.60;60.90;;;;;;5092534;28;20035;-72
2023/07/27 09:59:24;;;;;;;16.17;3.80;;;33.40;61.90;;;;;;5092508;28;20039;-72
2023/07/27 10:02:28;;;;;;;9.63;3.33;;;33.20;61.50;;;;;;5092407;28;20043;-72
2023/07/27 10:05:35;;;;;;;11.02;3.20;;;33.20;61.40;;;;;;5092699;28;20044;-72
2023/07/27 10:08:40;;;;;;;21.30;3.67;;;33.10;61.40;;;;;;5092079;28;20047;-72
2023/07/27 10:11:57;;;;;;;31.55;4.43;;;32.80;61.10;;;;;;5092793;28;20482;-72
2023/07/27 10:15:28;;;;;;;12.88;3.70;;;32.80;61.70;;;;;;5091792;28;20415;-73
2023/07/27 10:18:39;;;;;;;9.43;3.42;;;33.00;61.50;;;;;;5090935;28;20521;-72
2023/07/27 10:21:48;;;;;;;24.98;7.20;;;33.10;61.30;;;;;;5092026;28;20062;-72
2023/07/27 10:24:56;;;;;;;16.58;4.18;;;33.00;63.60;;;;;;5091565;28;20055;-73
2023/07/27 10:28:00;;;;;;;16.17;4.22;;;33.00;63.70;;;;;;5092169;28;20511;-72
2023/07/27 10:31:13;;;;;;;12.70;3.55;;;32.90;63.40;;;;;;5092133;28;20051;-72
2023/07/27 10:34:17;;;;;;;28.20;4.88;;;33.00;63.50;;;;;;5091593;28;20478;-72
2023/07/27 10:37:22;;;;;;;22.42;4.47;;;33.10;62.90;;;;;;5091673;28;20487;-72
2023/07/27 10:40:30;;;;;;;23.05;4.53;;;33.00;63.20;;;;;;5091795;28;20047;-72
2023/07/27 10:43:35;;;;;;;24.35;3.97;;;33.10;64.50;;;;;;5091816;28;20051;-72
2023/07/27 10:46:46;;;;;;;25.05;4.85;;;33.20;65.20;;;;;;5089664;28;20359;-70
2023/07/27 10:49:55;;;;;;;21.67;4.45;;;33.30;65.10;;;;;;5090924;28;20498;-70
2023/07/27 10:52:59;;;;;;;16.38;4.38;;;33.30;64.60;;;;;;5091663;28;20051;-71
2023/07/27 10:56:03;;;;;;;15.38;4.85;;;33.20;64.10;;;;;;5090427;28;20051;-71
2023/07/27 10:59:12;;;;;;;23.58;5.35;;;33.00;63.80;;;;;;5091181;28;20047;-71
2023/07/27 11:02:22;;;;;;;28.00;4.57;;;33.00;64.30;;;;;;5090226;28;20194;-71
2023/07/27 11:05:26;;;;;;;48.00;5.43;;;33.00;64.10;;;;;;5090717;28;20063;-71
2023/07/27 11:08:31;;;;;;;22.67;4.70;;;33.00;63.90;;;;;;5090490;28;20039;-71
2023/07/27 11:11:35;;;;;;;51.78;6.43;;;33.00;64.30;;;;;;5090638;28;20043;-71
2023/07/27 11:14:38;;;;;;;28.27;5.60;;;32.90;64.20;;;;;;5090274;28;20067;-71
2023/07/27 11:17:43;;;;;;;48.83;6.30;;;32.80;65.00;;;;;;5090948;28;20047;-71
2023/07/27 11:20:47;;;;;;;39.63;6.20;;;32.70;64.90;;;;;;5091244;28;20051;-70
2023/07/27 11:23:51;;;;;;;12.15;4.10;;;32.60;64.70;;;;;;5091791;28;20051;-71
2023/07/27 11:26:55;;;;;;;43.65;5.28;;;32.60;64.60;;;;;;5091398;28;20059;-71
2023/07/27 11:29:59;;;;;;;16.23;4.20;;;32.50;64.60;;;;;;5090886;28;20058;-71
2023/07/27 11:33:05;;;;;;;19.35;4.70;;;32.60;65.00;;;;;;5091395;28;20110;-71
2023/07/27 11:36:10;;;;;;;19.00;4.22;;;32.60;65.50;;;;;;5091508;28;20051;-71
2023/07/27 11:39:15;;;;;;;72.82;8.77;;;32.70;65.50;;;;;;5090955;28;20526;-71
2023/07/27 11:42:26;;;;;;;69.75;6.95;;;32.80;65.00;;;;;;5090822;28;20047;-71
2023/07/27 11:45:34;;;;;;;;;;;32.90;65.00;;;;;;5091485;28;20047;-71
2023/07/27 11:48:38;;;;;;;26.20;3.70;;;32.90;65.70;;;;;;5091420;28;19919;-71
2023/07/27 11:51:45;;;;;;;69.88;6.75;;;32.90;65.40;;;;;;5091041;28;20047;-71
2023/07/27 11:54:53;;;;;;;75.82;8.98;;;33.00;65.30;;;;;;5090881;28;20295;-71
2023/07/27 11:57:57;;;;;;;19.17;3.67;;;32.90;65.40;;;;;;5090465;28;20043;-71
2023/07/27 12:01:02;;;;;;;18.42;3.92;;;32.90;65.00;;;;;;5090556;28;20042;-70
2023/07/27 12:04:07;;;;;;;20.88;4.30;;;33.00;65.70;;;;;;5090904;28;20051;-71
2023/07/27 12:07:11;;;;;;;28.88;4.60;;;32.90;66.00;;;;;;5090673;28;20043;-71
2023/07/27 12:10:20;;;;;;;32.10;4.35;;;32.90;66.40;;;;;;5090884;28;20039;-71
2023/07/27 12:13:24;;;;;;;32.13;4.00;;;32.90;66.10;;;;;;5090812;28;20043;-71
2023/07/27 12:16:39;;;;;;;19.58;4.18;;;32.80;65.70;;;;;;5090581;28;20054;-71
2023/07/27 12:19:42;;;;;;;23.95;4.63;;;32.70;65.70;;;;;;5089725;28;20063;-71
2023/07/27 12:22:46;;;;;;;16.65;3.50;;;32.60;66.00;;;;;;5090447;28;20039;-71
2023/07/27 12:25:51;;;;;;;23.92;5.15;;;32.50;66.20;;;;;;5090365;28;20067;-71
2023/07/27 12:28:55;;;;;;;18.02;4.28;;;32.50;65.80;;;;;;5090510;28;20047;-71
2023/07/27 12:31:59;;;;;;;23.83;4.40;;;32.40;66.60;;;;;;5090361;28;20050;-72
2023/07/27 12:35:04;;;;;;;16.35;3.90;;;32.40;67.30;;;;;;5089363;28;20055;-71
2023/07/27 12:38:08;;;;;;;15.18;3.13;;;32.40;67.20;;;;;;5090739;28;20059;-71
2023/07/27 12:41:13;;;;;;;28.02;4.35;;;32.30;66.70;;;;;;5090564;28;20372;-70
2023/07/27 12:44:16;;;;;;;15.07;3.47;;;32.30;66.90;;;;;;5093897;28;20047;-70
2023/07/27 12:47:20;;;;;;;15.52;3.70;;;32.20;66.70;;;;;;5094085;28;20063;-71
2023/07/27 12:50:25;;;;;;;36.58;4.85;;;32.20;66.10;;;;;;5092984;28;20055;-70
2023/07/27 12:53:29;;;;;;;14.88;3.13;;;32.10;66.70;;;;;;5093534;28;20051;-71
2023/07/27 12:56:33;;;;;;;16.65;3.63;;;32.20;66.90;;;;;;5093688;28;20047;-71
2023/07/27 12:59:37;;;;;;;35.78;4.55;;;32.20;65.90;;;;;;5093995;28;20479;-71
2023/07/27 13:02:41;;;;;;;16.45;3.88;;;32.70;65.60;;;;;;5093553;28;20047;-73
2023/07/27 13:05:45;;;;;;;34.67;4.60;;;33.70;64.40;;;;;;5093709;28;20039;-81
2023/07/27 13:08:50;;;;;;;33.28;3.95;;;34.30;61.80;;;;;;5093480;28;20063;-81
2023/07/27 13:11:54;;;;;;;110.32;11.68;;;34.40;62.30;;;;;;5094016;28;20190;-77
2023/07/27 13:15:01;;;;;;;52.20;6.20;;;34.60;61.40;;;;;;5093734;28;20055;-70
2023/07/27 13:18:05;;;;;;;34.72;4.60;;;35.20;61.30;;;;;;5092701;28;20039;-68
2023/07/27 13:21:09;;;;;;;62.72;6.45;;;35.30;61.30;;;;;;5093288;28;20067;-71
2023/07/27 13:24:13;;;;;;;74.22;9.15;;;35.20;61.70;;;;;;5093404;28;20305;-70
2023/07/27 13:27:17;;;;;;;164.98;15.82;;;35.30;61.70;;;;;;5093389;28;20063;-69
2023/07/27 13:30:21;;;;;;;28.65;4.28;;;35.30;61.90;;;;;;5093078;28;20043;-72
2023/07/27 13:33:25;;;;;;;47.88;6.22;;;35.10;62.20;;;;;;5093307;28;20039;-70
2023/07/27 13:36:29;;;;;;;33.53;4.45;;;35.40;62.20;;;;;;5091845;28;20059;-71
2023/07/27 13:39:34;;;;;;;59.53;6.28;;;34.90;62.00;;;;;;5092370;28;20035;-71
2023/07/27 13:42:38;;;;;;;34.30;4.63;;;34.30;63.10;;;;;;5093136;28;20439;-71
2023/07/27 13:45:42;;;;;;;28.50;4.07;;;33.80;64.70;;;;;;5093116;28;20042;-72
2023/07/27 13:48:46;;;;;;;22.80;3.55;;;33.50;65.30;;;;;;5092785;28;20039;-71
2023/07/27 13:51:50;;;;;;;97.95;8.30;;;33.20;66.20;;;;;;5092393;28;20138;-71
2023/07/27 13:54:54;;;;;;;33.78;5.03;;;32.90;66.80;;;;;;5092351;28;20051;-71
2023/07/27 13:57:58;;;;;;;28.67;4.45;;;32.80;66.90;;;;;;5092681;28;20043;-71
2023/07/27 14:01:02;;;;;;;36.83;4.97;;;32.70;67.20;;;;;;5092614;28;20047;-71
2023/07/27 14:04:06;;;;;;;28.05;5.00;;;32.60;67.40;;;;;;5092840;28;20499;-71
2023/07/27 14:07:10;;;;;;;21.35;4.07;;;32.50;66.50;;;;;;5092371;28;20055;-71
2023/07/27 14:10:14;;;;;;;20.13;3.90;;;32.40;66.80;;;;;;5092369;28;20031;-72
2023/07/27 14:13:17;;;;;;;57.03;5.93;;;32.30;68.00;;;;;;5092646;28;20047;-71
2023/07/27 14:16:21;;;;;;;24.63;4.25;;;32.30;68.20;;;;;;5092347;28;20039;-72
2023/07/27 14:19:25;;;;;;;38.30;5.05;;;32.20;68.60;;;;;;5092242;28;20503;-72
2023/07/27 14:22:34;;;;;;;28.50;4.47;;;32.30;69.00;;;;;;5092211;28;20047;-72
2023/07/27 14:25:38;;;;;;;30.70;4.63;;;32.20;68.00;;;;;;5091981;28;20059;-71
2023/07/27 14:28:42;;;;;;;34.10;4.28;;;32.10;68.10;;;;;;5092148;28;20047;-71
2023/07/27 14:31:46;;;;;;;30.98;4.32;;;32.10;69.20;;;;;;5091711;28;20051;-72
2023/07/27 14:34:50;;;;;;;35.42;4.20;;;32.00;68.60;;;;;;5091639;28;20078;-71
2023/07/27 14:37:54;;;;;;;78.65;7.07;;;32.00;70.00;;;;;;5090759;28;20043;-71
2023/07/27 14:40:58;;;;;;;103.25;9.20;;;31.90;70.50;;;;;;5091633;28;20055;-71
2023/07/27 14:44:01;;;;;;;26.77;4.85;;;31.90;71.20;;;;;;5091835;28;20047;-71
2023/07/27 14:47:07;;;;;;;187.43;17.45;;;31.80;70.70;;;;;;5092078;28;20051;-71
2023/07/27 14:50:11;;;;;;;37.70;5.47;;;31.80;71.20;;;;;;5092830;28;20043;-72
2023/07/27 14:53:16;;;;;;;22.70;4.95;;;31.80;71.30;;;;;;5091994;28;20047;-71
2023/07/27 14:56:23;;;;;;;151.68;16.00;;;31.70;71.30;;;;;;5091346;28;20059;-72
2023/07/27 14:59:28;;;;;;;43.55;6.93;;;31.70;70.80;;;;;;5091752;28;20495;-72
2023/07/27 15:02:31;;;;;;;33.47;4.38;;;31.80;70.50;;;;;;5093250;28;20062;-72
2023/07/27 15:05:35;;;;;;;28.95;4.82;;;31.70;70.50;;;;;;5089738;28;20047;-72
2023/07/27 15:08:39;;;;;;;62.53;7.13;;;31.70;71.10;;;;;;5091792;28;20051;-72
2023/07/27 15:11:43;;;;;;;35.85;4.72;;;31.70;71.40;;;;;;5091517;28;20043;-72
2023/07/27 15:14:47;;;;;;;42.03;5.22;;;32.60;70.20;;;;;;5090045;28;20051;-72
2023/07/27 15:17:52;;;;;;;49.17;5.78;;;33.40;69.90;;;;;;5091793;28;20059;-73
2023/07/27 15:20:57;;;;;;;23.05;4.20;;;34.50;66.50;;;;;;5094408;28;20043;-72
2023/07/27 15:24:01;;;;;;;21.60;4.35;;;34.50;67.10;;;;;;5092773;28;20050;-72
2023/07/27 15:27:06;;;;;;;43.38;5.70;;;34.60;67.80;;;;;;5091884;28;20051;-77
2023/07/27 15:30:11;;;;;;;33.20;4.95;;;34.60;67.80;;;;;;5091517;28;20043;-76
2023/07/27 15:33:15;;;;;;;32.78;5.40;;;35.00;68.00;;;;;;5092144;28;20620;-75
2023/07/27 15:36:19;;;;;;;23.95;4.50;;;35.10;67.50;;;;;;5091282;28;20055;-76
2023/07/27 15:39:23;;;;;;;54.38;6.30;;;35.10;65.90;;;;;;5091440;28;20380;-81
2023/07/27 15:42:27;;;;;;;46.67;5.22;;;34.90;66.60;;;;;;5091707;28;20043;-75
2023/07/27 15:45:31;;;;;;;36.15;4.80;;;34.60;67.00;;;;;;5091080;28;20043;-71
2023/07/27 15:48:35;;;;;;;35.90;5.53;;;34.50;67.40;;;;;;5090627;28;20506;-69
2023/07/27 15:51:39;;;;;;;52.58;6.97;;;34.30;67.20;;;;;;5090743;28;20046;-75